createdAt,value
2017-12-12T00:00:52.212Z,955.30
2017-12-12T00:01:52.084Z,955.32
2017-12-12T00:03:44.855Z,955.35
2017-12-12T00:04:44.720Z,955.49
2017-12-12T00:06:37.445Z,955.50
2017-12-12T00:07:37.358Z,955.50
2017-12-12T00:09:30.139Z,955.46
2017-12-12T00:10:30.000Z,955.46
2017-12-12T00:12:22.742Z,955.43
2017-12-12T00:13:22.638Z,955.40
2017-12-12T00:15:15.401Z,955.34
2017-12-12T00:16:15.267Z,955.36
2017-12-12T00:18:08.047Z,955.46
2017-12-12T00:19:07.908Z,955.48
2017-12-12T00:21:00.632Z,955.52
2017-12-12T00:22:00.540Z,955.51
2017-12-12T00:23:53.316Z,955.49
2017-12-12T00:24:53.178Z,955.54
2017-12-12T00:26:45.899Z,955.61
2017-12-12T00:27:45.810Z,955.64
2017-12-12T00:29:39.076Z,955.72
2017-12-12T00:30:38.935Z,955.75
2017-12-12T00:32:31.667Z,955.79
2017-12-12T00:33:31.582Z,955.85
2017-12-12T00:35:24.354Z,955.92
2017-12-12T00:36:24.218Z,956.03
2017-12-12T00:38:16.951Z,956.08
2017-12-12T00:39:16.857Z,956.11
2017-12-12T00:41:09.627Z,956.13
2017-12-12T00:42:09.492Z,956.20
2017-12-12T00:44:02.265Z,956.23
2017-12-12T00:45:02.125Z,956.19
2017-12-12T00:46:54.854Z,956.24
2017-12-12T00:47:54.766Z,956.23
2017-12-12T00:49:47.534Z,956.33
2017-12-12T00:50:47.402Z,956.40
2017-12-12T00:52:40.131Z,956.55
2017-12-12T00:53:40.042Z,956.59
2017-12-12T00:55:32.817Z,956.73
2017-12-12T00:56:32.683Z,956.76
2017-12-12T00:58:25.418Z,956.77
2017-12-12T00:59:25.331Z,956.76
2017-12-12T01:01:18.103Z,956.84
2017-12-12T01:02:17.967Z,956.87
2017-12-12T01:04:10.740Z,956.90
2017-12-12T01:05:10.603Z,956.88
2017-12-12T01:07:03.343Z,956.89
2017-12-12T01:08:03.253Z,956.91
2017-12-12T01:09:56.021Z,957.01
2017-12-12T01:10:55.889Z,957.07
2017-12-12T01:12:48.611Z,957.16
2017-12-12T01:13:48.525Z,957.07
2017-12-12T01:15:41.787Z,957.07
2017-12-12T01:16:41.648Z,957.07
2017-12-12T01:18:34.380Z,957.02
2017-12-12T01:19:34.292Z,957.10
2017-12-12T01:21:27.557Z,957.13
2017-12-12T01:22:27.418Z,957.16
2017-12-12T01:24:20.141Z,957.28
2017-12-12T01:25:20.063Z,957.32
2017-12-12T01:27:12.827Z,957.32
2017-12-12T01:28:12.688Z,957.34
2017-12-12T01:30:05.467Z,957.39
2017-12-12T01:31:05.327Z,957.40
2017-12-12T01:32:58.047Z,957.36
2017-12-12T01:33:57.962Z,957.37
2017-12-12T01:35:50.727Z,957.42
2017-12-12T01:36:50.595Z,957.45
2017-12-12T01:38:43.320Z,957.52
2017-12-12T01:39:43.235Z,957.54
2017-12-12T01:41:35.996Z,957.59
2017-12-12T01:42:35.861Z,957.55
2017-12-12T01:44:28.588Z,957.62
2017-12-12T01:45:28.500Z,957.67
2017-12-12T01:47:21.271Z,957.71
2017-12-12T01:48:21.138Z,957.68
2017-12-12T01:50:13.905Z,957.63
2017-12-12T01:51:13.767Z,957.57
2017-12-12T01:53:06.541Z,957.64
2017-12-12T01:54:06.408Z,957.66
2017-12-12T01:55:59.175Z,957.50
2017-12-12T01:56:59.040Z,957.43
2017-12-12T01:58:51.772Z,957.49
2017-12-12T01:59:51.675Z,957.56
2017-12-12T02:01:44.444Z,957.55
2017-12-12T02:02:44.306Z,957.55
2017-12-12T02:04:37.039Z,957.51
2017-12-12T02:05:36.951Z,957.53
2017-12-12T02:07:29.727Z,957.63
2017-12-12T02:08:29.595Z,957.62
2017-12-12T02:10:22.316Z,957.63
2017-12-12T02:11:22.226Z,957.69
2017-12-12T02:13:15.001Z,957.77
2017-12-12T02:14:14.867Z,957.80
2017-12-12T02:16:07.604Z,957.71
2017-12-12T02:17:07.513Z,957.57
2017-12-12T02:19:00.327Z,957.47
2017-12-12T02:20:00.160Z,957.46
2017-12-12T02:21:52.935Z,957.63
2017-12-12T02:22:52.790Z,957.66
2017-12-12T02:24:45.518Z,957.62
2017-12-12T02:25:45.431Z,957.62
2017-12-12T02:27:38.197Z,957.59
2017-12-12T02:28:38.064Z,957.55
2017-12-12T02:30:30.791Z,957.59
2017-12-12T02:31:30.703Z,957.61
2017-12-12T02:33:23.486Z,957.60
2017-12-12T02:34:23.339Z,957.58
2017-12-12T02:36:16.066Z,957.56
2017-12-12T02:37:15.979Z,957.56
2017-12-12T02:39:08.751Z,957.52
2017-12-12T02:40:08.616Z,957.55
2017-12-12T02:42:01.341Z,957.70
2017-12-12T02:43:01.251Z,957.68
2017-12-12T02:44:54.031Z,957.71
2017-12-12T02:45:53.900Z,957.75
2017-12-12T02:47:46.658Z,957.78
2017-12-12T02:48:46.530Z,957.82
2017-12-12T02:50:39.250Z,957.91
2017-12-12T02:51:39.160Z,957.93
2017-12-12T02:53:31.940Z,957.98
2017-12-12T02:54:31.805Z,957.89
2017-12-12T02:56:24.631Z,957.87
2017-12-12T02:57:24.548Z,957.86
2017-12-12T02:59:17.305Z,957.94
2017-12-12T03:00:17.168Z,957.94
2017-12-12T03:02:09.885Z,957.96
2017-12-12T03:03:09.799Z,957.96
2017-12-12T03:05:02.572Z,957.99
2017-12-12T03:06:02.437Z,958.00
2017-12-12T03:07:55.160Z,958.02
2017-12-12T03:08:55.073Z,958.00
2017-12-12T03:10:47.840Z,957.94
2017-12-12T03:11:47.706Z,957.90
2017-12-12T03:13:40.450Z,957.96
2017-12-12T03:14:40.363Z,958.04
2017-12-12T03:16:33.134Z,958.12
2017-12-12T03:17:33.000Z,958.14
2017-12-12T03:19:25.784Z,958.25
2017-12-12T03:20:25.643Z,958.30
2017-12-12T03:22:18.376Z,958.27
2017-12-12T03:23:18.285Z,958.28
2017-12-12T03:25:11.061Z,958.41
2017-12-12T03:26:10.919Z,958.42
2017-12-12T03:28:03.657Z,958.42
2017-12-12T03:29:03.568Z,958.37
2017-12-12T03:30:56.349Z,958.40
2017-12-12T03:31:56.209Z,958.44
2017-12-12T03:33:48.933Z,958.52
2017-12-12T03:34:48.841Z,958.51
2017-12-12T03:36:41.601Z,958.48
2017-12-12T03:37:41.467Z,958.51
2017-12-12T03:39:34.189Z,958.51
2017-12-12T03:40:34.100Z,958.52
2017-12-12T03:42:27.366Z,958.53
2017-12-12T03:43:27.230Z,958.57
2017-12-12T03:45:19.951Z,958.67
2017-12-12T03:46:19.869Z,958.66
2017-12-12T03:48:12.630Z,958.69
2017-12-12T03:49:12.671Z,958.69
2017-12-12T03:51:05.282Z,958.69
2017-12-12T03:52:05.149Z,958.69
2017-12-12T03:53:57.877Z,958.76
2017-12-12T03:54:57.784Z,958.84
2017-12-12T03:56:50.551Z,959.02
2017-12-12T03:57:50.416Z,959.13
2017-12-12T03:59:43.139Z,959.09
2017-12-12T04:00:43.050Z,959.08
2017-12-12T04:02:35.832Z,958.99
2017-12-12T04:03:35.698Z,958.91
2017-12-12T04:05:28.424Z,958.83
2017-12-12T04:06:28.338Z,958.85
2017-12-12T04:08:21.114Z,958.89
2017-12-12T04:09:20.974Z,958.92
2017-12-12T04:11:13.689Z,959.17
2017-12-12T04:12:13.603Z,959.24
2017-12-12T04:14:06.376Z,959.21
2017-12-12T04:15:06.248Z,959.20
2017-12-12T04:16:58.970Z,959.21
2017-12-12T04:17:58.882Z,959.19
2017-12-12T04:19:51.656Z,959.31
2017-12-12T04:20:51.524Z,959.30
2017-12-12T04:22:44.297Z,959.42
2017-12-12T04:23:44.164Z,959.51
2017-12-12T04:25:37.402Z,959.59
2017-12-12T04:26:37.308Z,959.61
2017-12-12T04:28:30.072Z,959.61
2017-12-12T04:29:29.938Z,959.57
2017-12-12T04:31:22.658Z,959.61
2017-12-12T04:32:22.576Z,959.69
2017-12-12T04:34:15.340Z,959.78
2017-12-12T04:35:15.209Z,959.92
2017-12-12T04:37:07.931Z,960.03
2017-12-12T04:38:07.846Z,960.10
2017-12-12T04:40:00.635Z,960.18
2017-12-12T04:41:00.482Z,960.22
2017-12-12T04:42:53.719Z,960.20
2017-12-12T04:43:53.624Z,960.17
2017-12-12T04:45:46.401Z,960.25
2017-12-12T04:46:46.271Z,960.29
2017-12-12T04:48:38.986Z,960.32
2017-12-12T04:49:38.898Z,960.34
2017-12-12T04:51:31.678Z,960.28
2017-12-12T04:52:31.544Z,960.27
2017-12-12T04:54:24.315Z,960.19
2017-12-12T04:55:24.188Z,960.16
2017-12-12T04:57:16.904Z,960.25
2017-12-12T04:58:16.815Z,960.26
2017-12-12T05:00:09.601Z,960.30
2017-12-12T05:01:09.464Z,960.32
2017-12-12T05:03:02.291Z,960.43
2017-12-12T05:04:02.123Z,960.50
2017-12-12T05:05:54.909Z,960.51
2017-12-12T05:06:54.779Z,960.48
2017-12-12T05:08:47.507Z,960.45
2017-12-12T05:09:47.420Z,960.41
2017-12-12T05:11:40.184Z,960.29
2017-12-12T05:12:40.048Z,960.27
2017-12-12T05:14:33.344Z,960.46
2017-12-12T05:15:33.217Z,960.52
2017-12-12T05:17:25.992Z,960.65
2017-12-12T05:18:25.879Z,960.66
2017-12-12T05:20:18.640Z,960.62
2017-12-12T05:21:18.509Z,960.63
2017-12-12T05:23:11.245Z,960.64
2017-12-12T05:24:11.167Z,960.66
2017-12-12T05:26:03.929Z,960.80
2017-12-12T05:27:03.797Z,960.87
2017-12-12T05:28:56.526Z,961.08
2017-12-12T05:29:56.433Z,961.11
2017-12-12T05:31:49.206Z,961.15
2017-12-12T05:32:49.060Z,961.19
2017-12-12T05:34:41.838Z,961.19
2017-12-12T05:35:41.698Z,961.10
2017-12-12T05:37:34.916Z,961.18
2017-12-12T05:38:34.829Z,961.20
2017-12-12T05:40:27.600Z,961.18
2017-12-12T05:41:27.458Z,961.16
2017-12-12T05:43:20.208Z,961.12
2017-12-12T05:44:20.092Z,961.19
2017-12-12T05:46:12.855Z,961.44
2017-12-12T05:47:12.722Z,961.57
2017-12-12T05:49:05.461Z,961.74
2017-12-12T05:50:05.375Z,961.86
2017-12-12T05:51:58.144Z,961.84
2017-12-12T05:52:58.014Z,961.79
2017-12-12T05:54:50.776Z,961.83
2017-12-12T05:55:50.642Z,961.84
2017-12-12T05:57:43.375Z,961.84
2017-12-12T05:58:43.279Z,961.83
2017-12-12T06:00:36.040Z,961.92
2017-12-12T06:01:35.909Z,961.96
2017-12-12T06:03:28.628Z,962.08
2017-12-12T06:04:28.536Z,962.16
2017-12-12T06:06:21.315Z,962.14
2017-12-12T06:07:21.170Z,962.22
2017-12-12T06:09:13.897Z,962.36
2017-12-12T06:10:13.809Z,962.39
2017-12-12T06:12:06.586Z,962.56
2017-12-12T06:13:06.454Z,962.64
2017-12-12T06:14:59.220Z,962.70
2017-12-12T06:15:59.089Z,962.72
2017-12-12T06:17:51.821Z,962.80
2017-12-12T06:18:51.727Z,962.98
2017-12-12T06:20:44.494Z,963.04
2017-12-12T06:21:44.360Z,963.08
2017-12-12T06:23:37.097Z,963.10
2017-12-12T06:24:37.010Z,963.16
2017-12-12T06:26:29.783Z,963.14
2017-12-12T06:27:29.663Z,963.16
2017-12-12T06:29:22.871Z,963.31
2017-12-12T06:30:22.777Z,963.35
2017-12-12T06:32:15.545Z,963.46
2017-12-12T06:33:15.406Z,963.49
2017-12-12T06:35:08.130Z,963.60
2017-12-12T06:36:08.043Z,963.54
2017-12-12T06:38:00.876Z,963.69
2017-12-12T06:39:00.693Z,963.73
2017-12-12T06:40:53.463Z,963.84
2017-12-12T06:41:53.328Z,963.95
2017-12-12T06:43:46.047Z,963.95
2017-12-12T06:44:45.958Z,964.06
2017-12-12T06:46:38.726Z,964.13
2017-12-12T06:47:38.592Z,964.13
2017-12-12T06:49:31.358Z,964.18
2017-12-12T06:50:31.373Z,964.27
2017-12-12T06:52:24.045Z,964.42
2017-12-12T06:53:23.907Z,964.43
2017-12-12T06:55:16.632Z,964.52
2017-12-12T06:56:16.542Z,964.60
2017-12-12T06:58:09.436Z,964.61
2017-12-12T06:59:09.213Z,964.72
2017-12-12T07:01:02.476Z,964.79
2017-12-12T07:02:02.444Z,964.87
2017-12-12T07:03:55.722Z,964.94
2017-12-12T07:04:55.572Z,964.96
2017-12-12T07:06:48.412Z,965.06
2017-12-12T07:07:48.266Z,965.13
2017-12-12T07:09:41.008Z,965.17
2017-12-12T07:10:40.922Z,965.18
2017-12-12T07:12:34.197Z,965.30
2017-12-12T07:13:34.062Z,965.30
2017-12-12T07:15:26.789Z,965.39
2017-12-12T07:16:26.700Z,965.46
2017-12-12T07:18:19.462Z,965.47
2017-12-12T07:19:19.329Z,965.56
2017-12-12T07:21:12.046Z,965.63
2017-12-12T07:22:11.956Z,965.75
2017-12-12T07:24:04.739Z,965.85
2017-12-12T07:25:04.594Z,965.89
2017-12-12T07:26:57.318Z,965.94
2017-12-12T07:27:57.229Z,966.06
2017-12-12T07:29:50.001Z,966.12
2017-12-12T07:30:49.876Z,966.09
2017-12-12T07:32:42.593Z,966.08
2017-12-12T07:33:42.499Z,966.07
2017-12-12T07:35:35.267Z,966.27
2017-12-12T07:36:35.134Z,966.23
2017-12-12T07:38:27.858Z,966.29
2017-12-12T07:39:27.808Z,966.32
2017-12-12T07:41:20.565Z,966.54
2017-12-12T07:42:20.419Z,966.64
2017-12-12T07:44:13.195Z,966.66
2017-12-12T07:45:13.049Z,966.67
2017-12-12T07:47:05.771Z,966.71
2017-12-12T07:48:05.679Z,966.67
2017-12-12T07:49:58.444Z,966.73
2017-12-12T07:50:58.313Z,966.74
2017-12-12T07:52:51.061Z,966.75
2017-12-12T07:53:51.004Z,966.86
2017-12-12T07:55:44.733Z,966.87
2017-12-12T07:56:44.599Z,966.91
2017-12-12T07:58:37.600Z,966.96
2017-12-12T07:59:37.238Z,967.00
2017-12-12T08:01:30.051Z,967.10
2017-12-12T08:02:29.919Z,967.13
2017-12-12T08:04:22.679Z,967.19
2017-12-12T08:05:22.558Z,967.27
2017-12-12T08:07:15.324Z,967.35
2017-12-12T08:08:15.189Z,967.43
2017-12-12T08:10:07.973Z,967.52
2017-12-12T08:11:07.835Z,967.47
2017-12-12T08:13:00.570Z,967.56
2017-12-12T08:14:00.479Z,967.66
2017-12-12T08:15:53.263Z,967.82
2017-12-12T08:16:53.125Z,967.63
2017-12-12T08:18:45.851Z,967.54
2017-12-12T08:19:45.764Z,967.61
2017-12-12T08:21:38.553Z,967.70
2017-12-12T08:22:45.552Z,967.76
2017-12-12T08:24:31.184Z,967.82
2017-12-12T08:25:31.050Z,967.86
2017-12-12T08:27:23.818Z,967.87
2017-12-12T08:28:23.682Z,967.77
2017-12-12T08:30:16.445Z,967.92
2017-12-12T08:31:16.311Z,967.95
2017-12-12T08:33:09.511Z,967.96
2017-12-12T08:34:08.950Z,968.05
2017-12-12T08:36:01.749Z,968.08
2017-12-12T08:37:01.681Z,968.07
2017-12-12T08:38:54.528Z,968.07
2017-12-12T08:39:54.434Z,968.12
2017-12-12T08:41:47.201Z,968.20
2017-12-12T08:42:47.121Z,968.18
2017-12-12T08:44:39.799Z,968.26
2017-12-12T08:45:39.707Z,968.26
2017-12-12T08:47:32.466Z,968.34
2017-12-12T08:48:32.331Z,968.46
2017-12-12T08:50:25.099Z,968.41
2017-12-12T08:51:24.971Z,968.41
2017-12-12T08:53:17.731Z,968.49
2017-12-12T08:54:17.603Z,968.50
2017-12-12T08:56:10.393Z,968.58
2017-12-12T08:57:10.246Z,968.74
2017-12-12T08:59:03.476Z,968.71
2017-12-12T09:00:03.387Z,968.79
2017-12-12T09:01:56.156Z,968.89
2017-12-12T09:02:56.018Z,968.90
2017-12-12T09:04:49.244Z,968.94
2017-12-12T09:05:49.150Z,968.96
2017-12-12T09:07:41.923Z,969.04
2017-12-12T09:08:41.786Z,969.06
2017-12-12T09:10:34.558Z,969.10
2017-12-12T09:11:34.424Z,969.14
2017-12-12T09:13:27.650Z,969.17
2017-12-12T09:14:27.556Z,969.13
2017-12-12T09:16:20.333Z,969.07
2017-12-12T09:17:20.201Z,969.01
2017-12-12T09:19:12.917Z,969.09
2017-12-12T09:20:12.829Z,969.13
2017-12-12T09:22:05.604Z,969.17
2017-12-12T09:23:05.466Z,969.16
2017-12-12T09:24:58.184Z,969.23
2017-12-12T09:25:58.096Z,969.25
2017-12-12T09:27:50.868Z,969.25
2017-12-12T09:28:50.731Z,969.20
2017-12-12T09:30:43.496Z,969.20
2017-12-12T09:31:43.366Z,969.17
2017-12-12T09:33:36.086Z,969.22
2017-12-12T09:34:35.996Z,969.25
2017-12-12T09:36:28.787Z,969.42
2017-12-12T09:37:28.646Z,969.49
2017-12-12T09:39:21.383Z,969.61
2017-12-12T09:40:21.286Z,969.64
2017-12-12T09:42:14.051Z,969.71
2017-12-12T09:43:13.918Z,969.68
2017-12-12T09:45:06.666Z,969.63
2017-12-12T09:46:06.576Z,969.67
2017-12-12T09:47:59.345Z,969.74
2017-12-12T09:48:59.207Z,969.78
2017-12-12T09:50:52.005Z,969.76
2017-12-12T09:51:51.848Z,969.73
2017-12-12T09:53:44.573Z,969.78
2017-12-12T09:54:44.477Z,969.84
2017-12-12T09:56:37.756Z,969.86
2017-12-12T09:57:37.621Z,969.85
2017-12-12T09:59:30.418Z,969.95
2017-12-12T10:00:30.326Z,969.87
2017-12-12T10:02:23.097Z,969.94
2017-12-12T10:03:22.962Z,969.90
2017-12-12T10:05:15.697Z,969.85
2017-12-12T10:06:15.610Z,969.85
2017-12-12T10:08:08.373Z,969.93
2017-12-12T10:09:08.240Z,969.98
2017-12-12T10:11:01.016Z,970.01
2017-12-12T10:12:00.884Z,970.02
2017-12-12T10:13:53.613Z,970.03
2017-12-12T10:14:53.524Z,970.03
2017-12-12T10:16:46.296Z,969.95
2017-12-12T10:17:46.158Z,969.96
2017-12-12T10:19:38.917Z,970.08
2017-12-12T10:20:38.787Z,970.08
2017-12-12T10:22:32.048Z,970.25
2017-12-12T10:23:31.915Z,970.31
2017-12-12T10:25:24.648Z,970.28
2017-12-12T10:26:24.558Z,970.31
2017-12-12T10:28:17.323Z,970.32
2017-12-12T10:29:17.189Z,970.33
2017-12-12T10:31:09.960Z,970.33
2017-12-12T10:32:09.828Z,970.31
2017-12-12T10:34:02.561Z,970.31
2017-12-12T10:35:02.470Z,970.30
2017-12-12T10:36:55.240Z,970.30
2017-12-12T10:37:55.117Z,970.26
2017-12-12T10:39:47.836Z,970.33
2017-12-12T10:40:47.749Z,970.39
2017-12-12T10:42:40.523Z,970.44
2017-12-12T10:43:40.387Z,970.50
2017-12-12T10:45:33.110Z,970.56
2017-12-12T10:46:33.020Z,970.56
2017-12-12T10:48:25.797Z,970.57
2017-12-12T10:49:25.664Z,970.56
2017-12-12T10:51:18.428Z,970.64
2017-12-12T10:52:18.298Z,970.72
2017-12-12T10:54:11.016Z,970.70
2017-12-12T10:55:10.929Z,970.77
2017-12-12T10:57:03.698Z,970.67
2017-12-12T10:58:03.563Z,970.79
2017-12-12T10:59:56.298Z,970.85
2017-12-12T11:00:56.208Z,970.92
2017-12-12T11:02:48.970Z,970.96
2017-12-12T11:03:48.840Z,970.93
2017-12-12T11:05:41.620Z,970.94
2017-12-12T11:06:41.487Z,970.99
2017-12-12T11:08:34.233Z,971.07
2017-12-12T11:09:34.140Z,971.11
2017-12-12T11:11:26.910Z,971.06
2017-12-12T11:12:26.775Z,970.94
2017-12-12T11:14:19.504Z,970.90
2017-12-12T11:15:19.808Z,970.91
2017-12-12T11:17:12.171Z,970.97
2017-12-12T11:18:12.037Z,970.99
2017-12-12T11:20:04.769Z,971.01
2017-12-12T11:21:04.682Z,970.97
2017-12-12T11:22:57.444Z,971.08
2017-12-12T11:23:57.311Z,970.99
2017-12-12T11:25:50.047Z,970.84
2017-12-12T11:26:49.956Z,970.86
2017-12-12T11:28:42.722Z,970.82
2017-12-12T11:29:42.589Z,970.90
2017-12-12T11:31:35.312Z,970.84
2017-12-12T11:32:35.222Z,970.78
2017-12-12T11:34:28.002Z,970.82
2017-12-12T11:35:27.867Z,970.85
2017-12-12T11:37:20.639Z,970.86
2017-12-12T11:38:20.506Z,970.84
2017-12-12T11:40:13.227Z,970.89
2017-12-12T11:41:13.146Z,970.94
2017-12-12T11:43:06.045Z,971.12
2017-12-12T11:44:05.797Z,971.19
2017-12-12T11:45:58.536Z,971.21
2017-12-12T11:46:58.457Z,971.22
2017-12-12T11:48:51.221Z,971.18
2017-12-12T11:49:51.093Z,971.17
2017-12-12T11:51:43.823Z,971.18
2017-12-12T11:52:43.739Z,971.26
2017-12-12T11:54:37.003Z,971.25
2017-12-12T11:55:36.873Z,971.25
2017-12-12T11:57:29.610Z,971.24
2017-12-12T11:58:29.531Z,971.26
2017-12-12T12:00:22.309Z,971.35
2017-12-12T12:01:22.171Z,971.41
2017-12-12T12:03:14.910Z,971.58
2017-12-12T12:04:14.823Z,971.70
2017-12-12T12:06:07.602Z,971.64
2017-12-12T12:07:07.472Z,971.58
2017-12-12T12:09:00.202Z,971.61
2017-12-12T12:10:00.114Z,971.62
2017-12-12T12:11:52.897Z,971.60
2017-12-12T12:12:52.755Z,971.58
2017-12-12T12:14:45.540Z,971.56
2017-12-12T12:15:45.401Z,971.59
2017-12-12T12:17:38.169Z,971.60
2017-12-12T12:18:38.078Z,971.56
2017-12-12T12:20:30.854Z,971.54
2017-12-12T12:21:30.724Z,971.52
2017-12-12T12:23:23.455Z,971.60
2017-12-12T12:24:23.366Z,971.65
2017-12-12T12:26:16.132Z,971.68
2017-12-12T12:27:15.998Z,971.68
2017-12-12T12:29:08.745Z,971.75
2017-12-12T12:30:08.650Z,971.78
2017-12-12T12:32:01.419Z,971.80
2017-12-12T12:33:01.288Z,971.78
2017-12-12T12:34:54.009Z,971.83
2017-12-12T12:35:53.923Z,971.89
2017-12-12T12:37:47.039Z,972.00
2017-12-12T12:38:46.905Z,972.05
2017-12-12T12:40:39.630Z,972.04
2017-12-12T12:41:39.544Z,972.08
2017-12-12T12:43:32.313Z,972.00
2017-12-12T12:44:32.178Z,972.02
2017-12-12T12:46:25.449Z,972.04
2017-12-12T12:47:25.306Z,972.01
2017-12-12T12:49:18.034Z,971.98
2017-12-12T12:50:17.940Z,972.00
2017-12-12T12:52:10.713Z,972.04
2017-12-12T12:53:10.579Z,972.11
2017-12-12T12:55:03.304Z,972.08
2017-12-12T12:56:03.213Z,972.07
2017-12-12T12:57:56.474Z,972.07
2017-12-12T12:58:56.623Z,972.01
2017-12-12T13:00:49.065Z,972.04
2017-12-12T13:01:48.972Z,972.04
2017-12-12T13:03:41.746Z,972.12
2017-12-12T13:04:41.612Z,972.15
2017-12-12T13:06:34.395Z,972.24
2017-12-12T13:07:34.248Z,972.29
2017-12-12T13:09:27.474Z,972.35
2017-12-12T13:10:27.383Z,972.33
2017-12-12T13:12:20.162Z,972.23
2017-12-12T13:13:20.022Z,972.18
2017-12-12T13:15:13.235Z,972.12
2017-12-12T13:16:13.146Z,972.15
2017-12-12T13:18:05.921Z,972.21
2017-12-12T13:19:05.782Z,972.20
2017-12-12T13:20:58.512Z,972.21
2017-12-12T13:21:58.423Z,972.24
2017-12-12T13:23:51.211Z,972.32
2017-12-12T13:24:51.071Z,972.29
2017-12-12T13:26:44.289Z,972.35
2017-12-12T13:27:44.197Z,972.35
2017-12-12T13:29:37.073Z,972.35
2017-12-12T13:30:36.939Z,972.36
2017-12-12T13:32:29.707Z,972.40
2017-12-12T13:33:29.577Z,972.46
2017-12-12T13:35:22.613Z,972.52
2017-12-12T13:36:22.300Z,972.51
2017-12-12T13:38:14.940Z,972.53
2017-12-12T13:39:14.853Z,972.51
2017-12-12T13:41:07.708Z,972.52
2017-12-12T13:42:07.492Z,972.52
2017-12-12T13:44:00.211Z,972.56
2017-12-12T13:45:00.122Z,972.56
2017-12-12T13:46:52.902Z,972.60
2017-12-12T13:47:52.762Z,972.61
2017-12-12T13:49:45.478Z,972.63
2017-12-12T13:50:45.392Z,972.67
2017-12-12T13:52:38.653Z,972.78
2017-12-12T13:53:38.520Z,972.78
2017-12-12T13:55:31.287Z,972.86
2017-12-12T13:56:31.151Z,972.88
2017-12-12T13:58:23.952Z,972.91
2017-12-12T13:59:23.779Z,972.95
2017-12-12T14:01:16.504Z,972.91
2017-12-12T14:02:16.415Z,972.96
2017-12-12T14:04:09.187Z,972.97
2017-12-12T14:05:09.060Z,973.04
2017-12-12T14:07:01.783Z,973.07
2017-12-12T14:08:01.695Z,973.06
2017-12-12T14:09:54.464Z,973.07
2017-12-12T14:10:54.332Z,973.08
2017-12-12T14:12:47.046Z,973.12
2017-12-12T14:13:46.960Z,973.15
2017-12-12T14:15:39.777Z,973.19
2017-12-12T14:16:39.631Z,973.27
2017-12-12T14:18:32.598Z,973.33
2017-12-12T14:19:32.387Z,973.32
2017-12-12T14:21:25.163Z,973.31
2017-12-12T14:22:25.082Z,973.28
2017-12-12T14:24:19.433Z,973.22
2017-12-12T14:25:18.226Z,973.23
2017-12-12T14:27:11.000Z,973.31
2017-12-12T14:28:10.927Z,973.39
2017-12-12T14:30:03.814Z,973.45
2017-12-12T14:31:03.619Z,973.47
2017-12-12T14:32:56.376Z,973.49
2017-12-12T14:33:56.279Z,973.53
2017-12-12T14:35:49.738Z,973.60
2017-12-12T14:36:48.978Z,973.56
2017-12-12T14:38:42.316Z,973.63
2017-12-12T14:39:42.302Z,973.61
2017-12-12T14:41:34.471Z,973.65
2017-12-12T14:42:34.301Z,973.73
2017-12-12T14:44:27.047Z,973.76
2017-12-12T14:45:26.953Z,973.77
2017-12-12T14:47:19.745Z,973.77
2017-12-12T14:48:19.599Z,973.77
2017-12-12T14:50:12.462Z,973.82
2017-12-12T14:51:12.270Z,973.80
2017-12-12T14:53:05.506Z,973.83
2017-12-12T14:54:05.415Z,973.82
2017-12-12T14:55:58.238Z,973.87
2017-12-12T14:56:58.089Z,973.88
2017-12-12T14:58:50.862Z,973.87
2017-12-12T14:59:51.445Z,973.88
2017-12-12T15:01:43.732Z,973.94
2017-12-12T15:02:43.439Z,973.94
2017-12-12T15:04:36.356Z,973.96
2017-12-12T15:05:36.035Z,973.94
2017-12-12T15:07:29.042Z,973.93
2017-12-12T15:08:28.901Z,973.95
2017-12-12T15:10:21.866Z,973.96
2017-12-12T15:11:21.721Z,973.96
2017-12-12T15:13:14.980Z,973.95
2017-12-12T15:14:14.843Z,973.92
2017-12-12T15:16:07.582Z,973.94
2017-12-12T15:17:07.491Z,973.93
2017-12-12T15:19:00.265Z,974.01
2017-12-12T15:20:00.132Z,974.08
2017-12-12T15:21:53.357Z,974.12
2017-12-12T15:22:53.261Z,974.10
2017-12-12T15:24:46.028Z,974.15
2017-12-12T15:25:45.894Z,974.14
2017-12-12T15:27:38.691Z,974.11
2017-12-12T15:28:38.554Z,974.09
2017-12-12T15:30:31.464Z,974.12
2017-12-12T15:31:31.378Z,974.17
2017-12-12T15:33:24.730Z,974.23
2017-12-12T15:34:24.524Z,974.23
2017-12-12T15:36:17.795Z,974.24
2017-12-12T15:37:17.696Z,974.23
2017-12-12T15:39:10.500Z,974.29
2017-12-12T15:40:10.371Z,974.34
2017-12-12T15:42:03.084Z,974.40
2017-12-12T15:43:02.993Z,974.46
2017-12-12T15:44:55.765Z,974.47
2017-12-12T15:45:55.622Z,974.47
2017-12-12T15:47:48.337Z,974.52
2017-12-12T15:48:48.247Z,974.53
2017-12-12T15:50:41.015Z,974.54
2017-12-12T15:51:40.879Z,974.55
2017-12-12T15:53:34.093Z,974.58
2017-12-12T15:54:34.006Z,974.56
2017-12-12T15:56:26.769Z,974.58
2017-12-12T15:57:26.637Z,974.59
2017-12-12T15:59:19.408Z,974.59
2017-12-12T16:00:19.261Z,974.63
2017-12-12T16:02:11.987Z,974.61
2017-12-12T16:03:11.898Z,974.61
2017-12-12T16:05:04.665Z,974.64
2017-12-12T16:06:04.521Z,974.65
2017-12-12T16:07:57.769Z,974.71
2017-12-12T16:08:57.681Z,974.75
2017-12-12T16:10:51.003Z,974.73
2017-12-12T16:11:50.841Z,974.72
2017-12-12T16:13:43.546Z,974.70
2017-12-12T16:14:43.459Z,974.73
2017-12-12T16:16:36.242Z,974.70
2017-12-12T16:17:36.098Z,974.71
2017-12-12T16:19:28.819Z,974.65
2017-12-12T16:20:28.739Z,974.66
2017-12-12T16:22:22.435Z,974.72
2017-12-12T16:23:21.861Z,974.74
2017-12-12T16:25:14.581Z,974.85
2017-12-12T16:26:14.501Z,974.82
2017-12-12T16:28:07.264Z,974.83
2017-12-12T16:29:07.157Z,974.88
2017-12-12T16:30:59.855Z,975.01
2017-12-12T16:31:59.768Z,975.02
2017-12-12T16:33:52.546Z,975.01
2017-12-12T16:34:52.413Z,975.01
2017-12-12T16:36:45.172Z,974.99
2017-12-12T16:37:45.053Z,975.04
2017-12-12T16:39:38.760Z,975.02
2017-12-12T16:40:38.672Z,975.05
2017-12-12T16:42:31.432Z,975.10
2017-12-12T16:43:31.298Z,975.13
2017-12-12T16:45:24.031Z,975.20
2017-12-12T16:46:23.934Z,975.23
2017-12-12T16:48:16.697Z,975.27
2017-12-12T16:49:16.561Z,975.28
2017-12-12T16:51:09.279Z,975.33
2017-12-12T16:52:09.189Z,975.31
2017-12-12T16:54:01.957Z,975.38
2017-12-12T16:55:01.822Z,975.40
2017-12-12T16:56:55.090Z,975.50
2017-12-12T16:57:54.956Z,975.51
2017-12-12T16:59:47.669Z,975.49
2017-12-12T17:00:47.579Z,975.54
2017-12-12T17:02:41.347Z,975.54
2017-12-12T17:03:41.216Z,975.56
2017-12-12T17:05:33.926Z,975.58
2017-12-12T17:06:33.837Z,975.57
2017-12-12T17:08:26.624Z,975.65
2017-12-12T17:09:26.490Z,975.65
2017-12-12T17:11:19.207Z,975.70
2017-12-12T17:12:19.118Z,975.72
2017-12-12T17:14:11.918Z,975.73
2017-12-12T17:15:11.775Z,975.77
2017-12-12T17:17:05.061Z,975.76
2017-12-12T17:18:04.914Z,975.74
2017-12-12T17:19:57.643Z,975.78
2017-12-12T17:20:57.553Z,975.79
2017-12-12T17:22:50.324Z,975.82
2017-12-12T17:23:50.194Z,975.85
2017-12-12T17:25:43.413Z,975.92
2017-12-12T17:26:43.320Z,975.93
2017-12-12T17:28:36.086Z,975.95
2017-12-12T17:29:35.949Z,975.93
2017-12-12T17:31:28.686Z,975.98
2017-12-12T17:32:28.584Z,975.99
2017-12-12T17:34:21.351Z,976.09
2017-12-12T17:35:21.214Z,976.10
2017-12-12T17:37:13.930Z,976.17
2017-12-12T17:38:13.841Z,976.22
2017-12-12T17:40:06.752Z,976.33
2017-12-12T17:41:06.748Z,976.36
2017-12-12T17:42:59.349Z,976.43
2017-12-12T17:43:59.251Z,976.45
2017-12-12T17:45:52.136Z,976.47
2017-12-12T17:46:52.061Z,976.49
2017-12-12T17:48:44.752Z,976.56
2017-12-12T17:49:44.643Z,976.53
2017-12-12T17:51:37.431Z,976.61
2017-12-12T17:52:37.293Z,976.57
2017-12-12T17:54:30.364Z,976.62
2017-12-12T17:55:30.420Z,976.67
2017-12-12T17:57:23.221Z,976.73